sensor_id;sensor_type;location;lat;lon;timestamp;pressure;altitude;pressure_sealevel;temperature;humidity
20156;BME280;10238;49.556;10.956;2023-05-27T00:02:18;99122.53;;;13.89;100.00
20156;BME280;10238;49.556;10.956;2023-05-27T00:05:07;99115.00;;;13.84;100.00
20156;BME280;10238;49.556;10.956;2023-05-27T00:07:56;99115.38;;;13.72;100.00
20156;BME280;10238;49.556;10.956;2023-05-27T00:10:44;99110.50;;;13.67;100.00
20156;BME280;10238;49.556;10.956;2023-05-27T00:13:31;99112.69;;;13.64;100.00
20156;BME280;10238;49.556;10.956;2023-05-27T00:16:19;99120.75;;;13.54;100.00
20156;BME280;10238;49.556;10.956;2023-05-27T00:19:07;99111.22;;;13.52;100.00
20156;BME280;10238;49.556;10.956;2023-05-27T00:21:55;99114.81;;;13.43;100.00
20156;BME280;10238;49.556;10.956;2023-05-27T00:24:44;99119.25;;;13.34;100.00
20156;BME280;10238;49.556;10.956;2023-05-27T00:27:31;99121.63;;;13.37;100.00
20156;BME280;10238;49.556;10.956;2023-05-27T00:30:19;99118.25;;;13.35;100.00
20156;BME280;10238;49.556;10.956;2023-05-27T00:33:06;99117.19;;;13.28;100.00
20156;BME280;10238;49.556;10.956;2023-05-27T00:35:54;99117.50;;;13.25;100.00
20156;BME280;10238;49.556;10.956;2023-05-27T00:38:41;99123.44;;;13.19;100.00
20156;BME280;10238;49.556;10.956;2023-05-27T00:41:31;99115.44;;;13.19;100.00
20156;BME280;10238;49.556;10.956;2023-05-27T00:44:21;99121.69;;;13.10;100.00
20156;BME280;10238;49.556;10.956;2023-05-27T00:47:08;99114.63;;;13.01;100.00
20156;BME280;10238;49.556;10.956;2023-05-27T00:49:57;99118.25;;;13.00;100.00
20156;BME280;10238;49.556;10.956;2023-05-27T00:52:44;99120.78;;;13.01;100.00
20156;BME280;10238;49.556;10.956;2023-05-27T00:55:32;99117.16;;;12.93;100.00
20156;BME280;10238;49.556;10.956;2023-05-27T00:58:21;99121.50;;;12.94;100.00
20156;BME280;10238;49.556;10.956;2023-05-27T01:01:10;99127.81;;;12.93;100.00
20156;BME280;10238;49.556;10.956;2023-05-27T01:03:58;99119.81;;;12.93;100.00
20156;BME280;10238;49.556;10.956;2023-05-27T01:06:58;99123.38;;;12.84;100.00
20156;BME280;10238;49.556;10.956;2023-05-27T01:09:59;99123.53;;;12.82;100.00
20156;BME280;10238;49.556;10.956;2023-05-27T01:13:01;99118.91;;;12.84;100.00
20156;BME280;10238;49.556;10.956;2023-05-27T01:15:53;99114.47;;;12.75;100.00
20156;BME280;10238;49.556;10.956;2023-05-27T01:18:47;99115.91;;;12.70;100.00
20156;BME280;10238;49.556;10.956;2023-05-27T01:21:39;99113.41;;;12.59;100.00
20156;BME280;10238;49.556;10.956;2023-05-27T01:24:32;99117.94;;;12.58;100.00
20156;BME280;10238;49.556;10.956;2023-05-27T01:27:21;99109.78;;;12.60;100.00
20156;BME280;10238;49.556;10.956;2023-05-27T01:30:12;99110.09;;;12.57;100.00
20156;BME280;10238;49.556;10.956;2023-05-27T01:33:07;99109.31;;;12.47;100.00
20156;BME280;10238;49.556;10.956;2023-05-27T01:36:03;99102.72;;;12.41;100.00
20156;BME280;10238;49.556;10.956;2023-05-27T01:38:54;99107.09;;;12.33;100.00
20156;BME280;10238;49.556;10.956;2023-05-27T01:41:46;99098.72;;;12.28;100.00
20156;BME280;10238;49.556;10.956;2023-05-27T01:44:34;99095.34;;;12.26;100.00
20156;BME280;10238;49.556;10.956;2023-05-27T01:47:22;99091.47;;;12.20;100.00
20156;BME280;10238;49.556;10.956;2023-05-27T01:50:10;99087.94;;;12.20;100.00
20156;BME280;10238;49.556;10.956;2023-05-27T01:52:59;99082.75;;;12.18;100.00
20156;BME280;10238;49.556;10.956;2023-05-27T01:55:47;99095.56;;;12.15;100.00
20156;BME280;10238;49.556;10.956;2023-05-27T01:58:36;99089.53;;;12.13;100.00
20156;BME280;10238;49.556;10.956;2023-05-27T02:01:24;99089.53;;;12.13;100.00
20156;BME280;10238;49.556;10.956;2023-05-27T02:04:14;99092.47;;;12.10;100.00
20156;BME280;10238;49.556;10.956;2023-05-27T02:07:05;99084.63;;;12.08;100.00
20156;BME280;10238;49.556;10.956;2023-05-27T02:09:53;99097.56;;;12.03;100.00
20156;BME280;10238;49.556;10.956;2023-05-27T02:12:41;99096.88;;;12.01;100.00
20156;BME280;10238;49.556;10.956;2023-05-27T02:15:30;99098.00;;;11.99;100.00
20156;BME280;10238;49.556;10.956;2023-05-27T02:18:18;99101.63;;;11.98;100.00
20156;BME280;10238;49.556;10.956;2023-05-27T02:21:07;99093.25;;;11.93;100.00
20156;BME280;10238;49.556;10.956;2023-05-27T02:23:54;99093.41;;;11.91;100.00
20156;BME280;10238;49.556;10.956;2023-05-27T02:26:42;99095.78;;;11.85;100.00
20156;BME280;10238;49.556;10.956;2023-05-27T02:29:29;99093.25;;;11.83;100.00
20156;BME280;10238;49.556;10.956;2023-05-27T02:32:21;99094.69;;;11.78;100.00
20156;BME280;10238;49.556;10.956;2023-05-27T02:35:13;99093.31;;;11.74;100.00
20156;BME280;10238;49.556;10.956;2023-05-27T02:38:01;99092.31;;;11.75;100.00
20156;BME280;10238;49.556;10.956;2023-05-27T02:41:02;99091.59;;;11.73;100.00
20156;BME280;10238;49.556;10.956;2023-05-27T02:43:50;99097.53;;;11.67;100.00
20156;BME280;10238;49.556;10.956;2023-05-27T02:46:38;99100.03;;;11.59;100.00
20156;BME280;10238;49.556;10.956;2023-05-27T02:49:27;99097.22;;;11.51;100.00
20156;BME280;10238;49.556;10.956;2023-05-27T02:52:15;99093.72;;;11.41;100.00
20156;BME280;10238;49.556;10.956;2023-05-27T02:55:03;99097.66;;;11.37;100.00
20156;BME280;10238;49.556;10.956;2023-05-27T02:57:51;99094.28;;;11.35;100.00
20156;BME280;10238;49.556;10.956;2023-05-27T03:00:39;99087.56;;;11.31;100.00
20156;BME280;10238;49.556;10.956;2023-05-27T03:03:27;99090.81;;;11.25;100.00
20156;BME280;10238;49.556;10.956;2023-05-27T03:06:17;99088.41;;;11.22;100.00
20156;BME280;10238;49.556;10.956;2023-05-27T03:09:05;99088.03;;;11.17;100.00
20156;BME280;10238;49.556;10.956;2023-05-27T03:11:53;99092.91;;;11.12;100.00
20156;BME280;10238;49.556;10.956;2023-05-27T03:14:41;99089.84;;;11.07;100.00
20156;BME280;10238;49.556;10.956;2023-05-27T03:17:28;99096.41;;;11.02;100.00
20156;BME280;10238;49.556;10.956;2023-05-27T03:20:16;99089.41;;;11.02;100.00
20156;BME280;10238;49.556;10.956;2023-05-27T03:23:06;99093.75;;;11.02;100.00
20156;BME280;10238;49.556;10.956;2023-05-27T03:25:54;99093.06;;;11.01;100.00
20156;BME280;10238;49.556;10.956;2023-05-27T03:28:42;99085.06;;;11.01;100.00
20156;BME280;10238;49.556;10.956;2023-05-27T03:31:29;99086.03;;;10.99;100.00
20156;BME280;10238;49.556;10.956;2023-05-27T03:34:17;99086.88;;;11.00;100.00
20156;BME280;10238;49.556;10.956;2023-05-27T03:37:04;99086.63;;;10.93;100.00
20156;BME280;10238;49.556;10.956;2023-05-27T03:39:53;99086.47;;;10.85;100.00
20156;BME280;10238;49.556;10.956;2023-05-27T03:42:41;99077.34;;;10.88;100.00
20156;BME280;10238;49.556;10.956;2023-05-27T03:45:31;99087.03;;;10.89;100.00
20156;BME280;10238;49.556;10.956;2023-05-27T03:48:19;99084.66;;;10.86;100.00
20156;BME280;10238;49.556;10.956;2023-05-27T03:51:07;99087.44;;;10.84;100.00
20156;BME280;10238;49.556;10.956;2023-05-27T03:53:55;99090.25;;;10.83;100.00
20156;BME280;10238;49.556;10.956;2023-05-27T03:56:44;99090.50;;;10.89;100.00
20156;BME280;10238;49.556;10.956;2023-05-27T03:59:32;99093.31;;;10.88;100.00
20156;BME280;10238;49.556;10.956;2023-05-27T04:02:20;99091.66;;;10.87;100.00
20156;BME280;10238;49.556;10.956;2023-05-27T04:05:11;99089.97;;;10.95;100.00
20156;BME280;10238;49.556;10.956;2023-05-27T04:07:59;99094.03;;;10.99;100.00
20156;BME280;10238;49.556;10.956;2023-05-27T04:10:47;99086.03;;;10.99;100.00
20156;BME280;10238;49.556;10.956;2023-05-27T04:13:36;99090.69;;;10.98;100.00
20156;BME280;10238;49.556;10.956;2023-05-27T04:16:28;99089.97;;;10.95;100.00
20156;BME280;10238;49.556;10.956;2023-05-27T04:19:17;99089.69;;;10.98;100.00
20156;BME280;10238;49.556;10.956;2023-05-27T04:22:09;99093.34;;;10.98;100.00
20156;BME280;10238;49.556;10.956;2023-05-27T04:24:56;99082.69;;;10.98;100.00
20156;BME280;10238;49.556;10.956;2023-05-27T04:27:44;99093.06;;;11.01;100.00
20156;BME280;10238;49.556;10.956;2023-05-27T04:30:34;99087.75;;;11.01;100.00
20156;BME280;10238;49.556;10.956;2023-05-27T04:33:22;99098.09;;;11.04;100.00
20156;BME280;10238;49.556;10.956;2023-05-27T04:36:10;99105.09;;;11.05;100.00
20156;BME280;10238;49.556;10.956;2023-05-27T04:38:57;99101.88;;;11.11;100.00
20156;BME280;10238;49.556;10.956;2023-05-27T04:41:47;99104.25;;;11.14;100.00
20156;BME280;10238;49.556;10.956;2023-05-27T04:44:34;99101.47;;;11.15;100.00
20156;BME280;10238;49.556;10.956;2023-05-27T04:47:23;99104.94;;;11.16;100.00
20156;BME280;10238;49.556;10.956;2023-05-27T04:50:13;99108.03;;;11.21;100.00
20156;BME280;10238;49.556;10.956;2023-05-27T04:53:26;99105.94;;;11.24;100.00
20156;BME280;10238;49.556;10.956;2023-05-27T04:56:13;99108.47;;;11.26;100.00
20156;BME280;10238;49.556;10.956;2023-05-27T04:59:02;99099.22;;;11.30;100.00
20156;BME280;10238;49.556;10.956;2023-05-27T05:01:51;99098.94;;;11.33;100.00
20156;BME280;10238;49.556;10.956;2023-05-27T05:04:58;99097.53;;;11.38;100.00
20156;BME280;10238;49.556;10.956;2023-05-27T05:07:45;99105.09;;;11.43;100.00
20156;BME280;10238;49.556;10.956;2023-05-27T05:10:34;99104.81;;;11.46;100.00
20156;BME280;10238;49.556;10.956;2023-05-27T05:13:21;99103.53;;;11.50;100.00
20156;BME280;10238;49.556;10.956;2023-05-27T05:16:10;99104.78;;;11.55;100.00
20156;BME280;10238;49.556;10.956;2023-05-27T05:18:57;99107.00;;;11.60;100.00
20156;BME280;10238;49.556;10.956;2023-05-27T05:21:46;99097.81;;;11.64;100.00
20156;BME280;10238;49.556;10.956;2023-05-27T05:24:34;99105.19;;;11.70;100.00
20156;BME280;10238;49.556;10.956;2023-05-27T05:27:23;99103.66;;;11.77;100.00
20156;BME280;10238;49.556;10.956;2023-05-27T05:30:11;99108.44;;;11.83;100.00
20156;BME280;10238;49.556;10.956;2023-05-27T05:32:59;99109.66;;;11.88;100.00
20156;BME280;10238;49.556;10.956;2023-05-27T05:35:47;99105.44;;;11.95;100.00
20156;BME280;10238;49.556;10.956;2023-05-27T05:38:36;99113.38;;;12.05;100.00
20156;BME280;10238;49.556;10.956;2023-05-27T05:41:23;99106.38;;;12.13;100.00
20156;BME280;10238;49.556;10.956;2023-05-27T05:44:12;99101.97;;;12.22;100.00
20156;BME280;10238;49.556;10.956;2023-05-27T05:47:01;99100.41;;;12.29;100.00
20156;BME280;10238;49.556;10.956;2023-05-27T05:49:49;99101.19;;;12.39;99.99
20156;BME280;10238;49.556;10.956;2023-05-27T05:52:36;99100.31;;;12.48;99.30
20156;BME280;10238;49.556;10.956;2023-05-27T05:55:25;99099.13;;;12.60;98.96
20156;BME280;10238;49.556;10.956;2023-05-27T05:58:14;99094.25;;;12.73;97.69
20156;BME280;10238;49.556;10.956;2023-05-27T06:01:01;99098.41;;;12.85;97.18
20156;BME280;10238;49.556;10.956;2023-05-27T06:03:50;99106.59;;;13.01;96.56
20156;BME280;10238;49.556;10.956;2023-05-27T06:06:38;99101.44;;;13.17;96.09
20156;BME280;10238;49.556;10.956;2023-05-27T06:09:26;99105.91;;;13.34;95.16
20156;BME280;10238;49.556;10.956;2023-05-27T06:12:19;99094.75;;;13.56;93.34
20156;BME280;10238;49.556;10.956;2023-05-27T06:15:09;99099.91;;;13.75;93.55
20156;BME280;10238;49.556;10.956;2023-05-27T06:17:56;99099.38;;;13.97;92.86
20156;BME280;10238;49.556;10.956;2023-05-27T06:20:44;99100.16;;;14.15;92.08
20156;BME280;10238;49.556;10.956;2023-05-27T06:23:31;99104.97;;;14.37;91.38
20156;BME280;10238;49.556;10.956;2023-05-27T06:26:19;99106.09;;;14.60;90.22
20156;BME280;10238;49.556;10.956;2023-05-27T06:29:09;99111.81;;;14.81;89.98
20156;BME280;10238;49.556;10.956;2023-05-27T06:31:56;99098.50;;;15.05;89.03
20156;BME280;10238;49.556;10.956;2023-05-27T06:35:10;99096.53;;;15.32;89.23
20156;BME280;10238;49.556;10.956;2023-05-27T06:37:58;99083.84;;;15.58;85.83
20156;BME280;10238;49.556;10.956;2023-05-27T06:40:46;99092.19;;;15.79;87.64
20156;BME280;10238;49.556;10.956;2023-05-27T06:43:35;99088.47;;;16.04;86.77
20156;BME280;10238;49.556;10.956;2023-05-27T06:46:24;99081.31;;;16.35;85.65
20156;BME280;10238;49.556;10.956;2023-05-27T06:49:12;99077.56;;;16.60;82.19
20156;BME280;10238;49.556;10.956;2023-05-27T06:51:59;99075.72;;;16.60;75.06
20156;BME280;10238;49.556;10.956;2023-05-27T06:54:47;99077.72;;;16.89;75.54
20156;BME280;10238;49.556;10.956;2023-05-27T06:57:35;99076.03;;;16.96;70.87
20156;BME280;10238;49.556;10.956;2023-05-27T07:00:23;99074.47;;;17.24;74.31
20156;BME280;10238;49.556;10.956;2023-05-27T07:03:12;99066.31;;;17.63;72.90
20156;BME280;10238;49.556;10.956;2023-05-27T07:06:00;99071.06;;;17.75;68.67
20156;BME280;10238;49.556;10.956;2023-05-27T07:08:48;99071.25;;;17.88;68.31
20156;BME280;10238;49.556;10.956;2023-05-27T07:11:36;99066.09;;;18.01;67.98
20156;BME280;10238;49.556;10.956;2023-05-27T07:14:23;99069.16;;;17.98;67.91
20156;BME280;10238;49.556;10.956;2023-05-27T07:17:11;99065.44;;;18.28;70.36
20156;BME280;10238;49.556;10.956;2023-05-27T07:20:00;99071.56;;;18.22;64.43
20156;BME280;10238;49.556;10.956;2023-05-27T07:22:48;99066.50;;;18.56;68.33
20156;BME280;10238;49.556;10.956;2023-05-27T07:25:36;99067.34;;;18.92;68.17
20156;BME280;10238;49.556;10.956;2023-05-27T07:28:24;99064.03;;;19.11;63.76
20156;BME280;10238;49.556;10.956;2023-05-27T07:31:20;99069.03;;;18.93;64.25
20156;BME280;10238;49.556;10.956;2023-05-27T07:34:08;99067.75;;;19.10;67.69
20156;BME280;10238;49.556;10.956;2023-05-27T07:36:57;99056.88;;;19.40;67.08
20156;BME280;10238;49.556;10.956;2023-05-27T07:39:45;99052.94;;;19.42;62.19
20156;BME280;10238;49.556;10.956;2023-05-27T07:42:33;99042.84;;;19.72;65.10
20156;BME280;10238;49.556;10.956;2023-05-27T07:45:20;99045.88;;;19.90;63.38
20156;BME280;10238;49.556;10.956;2023-05-27T07:48:08;99035.19;;;20.03;63.68
20156;BME280;10238;49.556;10.956;2023-05-27T07:50:57;99028.13;;;20.36;67.76
20156;BME280;10238;49.556;10.956;2023-05-27T07:53:48;99026.47;;;20.82;63.19
20156;BME280;10238;49.556;10.956;2023-05-27T07:56:35;99029.06;;;21.29;63.01
20156;BME280;10238;49.556;10.956;2023-05-27T07:59:23;99026.59;;;21.34;58.39
20156;BME280;10238;49.556;10.956;2023-05-27T08:02:10;99026.00;;;21.84;62.12
20156;BME280;10238;49.556;10.956;2023-05-27T08:04:59;99019.53;;;21.85;56.07
20156;BME280;10238;49.556;10.956;2023-05-27T08:07:47;99028.06;;;21.56;55.66
20156;BME280;10238;49.556;10.956;2023-05-27T08:10:37;99017.25;;;21.56;57.99
20156;BME280;10238;49.556;10.956;2023-05-27T08:13:25;99019.13;;;21.75;56.03
20156;BME280;10238;49.556;10.956;2023-05-27T08:16:12;99010.75;;;21.70;56.53
20156;BME280;10238;49.556;10.956;2023-05-27T08:19:00;99010.38;;;21.73;54.91
20156;BME280;10238;49.556;10.956;2023-05-27T08:21:48;99005.13;;;21.98;54.65
20156;BME280;10238;49.556;10.956;2023-05-27T08:24:36;99001.63;;;21.91;53.05
20156;BME280;10238;49.556;10.956;2023-05-27T08:27:45;99010.56;;;22.11;56.73
20156;BME280;10238;49.556;10.956;2023-05-27T08:30:33;99010.25;;;22.38;52.40
20156;BME280;10238;49.556;10.956;2023-05-27T08:33:21;99005.59;;;22.65;53.95
20156;BME280;10238;49.556;10.956;2023-05-27T08:36:09;98999.63;;;22.87;51.92
20156;BME280;10238;49.556;10.956;2023-05-27T08:38:58;98996.69;;;22.95;51.09
20156;BME280;10238;49.556;10.956;2023-05-27T08:41:49;98995.09;;;23.12;52.21
20156;BME280;10238;49.556;10.956;2023-05-27T08:44:39;98991.78;;;23.42;49.61
20156;BME280;10238;49.556;10.956;2023-05-27T08:47:28;98989.03;;;23.10;48.73
20156;BME280;10238;49.556;10.956;2023-05-27T08:50:17;98981.88;;;23.29;49.85
20156;BME280;10238;49.556;10.956;2023-05-27T08:53:05;98984.06;;;23.07;50.20
20156;BME280;10238;49.556;10.956;2023-05-27T08:55:56;98988.97;;;23.23;51.35
20156;BME280;10238;49.556;10.956;2023-05-27T08:58:46;98985.09;;;23.69;49.45
20156;BME280;10238;49.556;10.956;2023-05-27T09:01:35;98982.41;;;23.62;47.86
20156;BME280;10238;49.556;10.956;2023-05-27T09:04:25;98984.22;;;23.93;47.61
20156;BME280;10238;49.556;10.956;2023-05-27T09:07:13;98976.72;;;23.95;47.06
20156;BME280;10238;49.556;10.956;2023-05-27T09:10:01;98976.91;;;23.93;45.84
20156;BME280;10238;49.556;10.956;2023-05-27T09:12:50;98978.03;;;23.86;44.98
20156;BME280;10238;49.556;10.956;2023-05-27T09:15:38;98969.78;;;23.92;46.90
20156;BME280;10238;49.556;10.956;2023-05-27T09:18:28;98975.59;;;24.20;47.58
20156;BME280;10238;49.556;10.956;2023-05-27T09:21:17;98968.19;;;24.45;48.38
20156;BME280;10238;49.556;10.956;2023-05-27T09:24:04;98966.81;;;24.54;46.97
20156;BME280;10238;49.556;10.956;2023-05-27T09:26:53;98969.34;;;24.85;46.27
20156;BME280;10238;49.556;10.956;2023-05-27T09:29:41;98964.53;;;24.99;45.67
20156;BME280;10238;49.556;10.956;2023-05-27T09:32:31;98953.25;;;25.25;45.22
20156;BME280;10238;49.556;10.956;2023-05-27T09:35:20;98959.91;;;25.29;43.80
20156;BME280;10238;49.556;10.956;2023-05-27T09:38:08;98949.06;;;25.52;44.68
20156;BME280;10238;49.556;10.956;2023-05-27T09:41:49;98949.31;;;25.62;45.09
20156;BME280;10238;49.556;10.956;2023-05-27T09:44:37;98949.31;;;25.62;43.05
20156;BME280;10238;49.556;10.956;2023-05-27T09:47:27;98931.91;;;25.86;42.39
20156;BME280;10238;49.556;10.956;2023-05-27T09:50:16;98931.28;;;25.84;42.00
20156;BME280;10238;49.556;10.956;2023-05-27T09:53:06;98928.00;;;25.82;42.52
20156;BME280;10238;49.556;10.956;2023-05-27T09:55:58;98932.34;;;25.95;42.61
20156;BME280;10238;49.556;10.956;2023-05-27T09:58:46;98924.66;;;26.03;41.73
20156;BME280;10238;49.556;10.956;2023-05-27T10:01:35;98921.41;;;26.29;42.18
20156;BME280;10238;49.556;10.956;2023-05-27T10:04:23;98920.94;;;26.60;42.05
20156;BME280;10238;49.556;10.956;2023-05-27T10:07:13;98916.06;;;26.74;41.85
20156;BME280;10238;49.556;10.956;2023-05-27T10:10:15;98910.63;;;26.74;41.11
20156;BME280;10238;49.556;10.956;2023-05-27T10:13:04;98915.44;;;26.44;42.06
20156;BME280;10238;49.556;10.956;2023-05-27T10:15:52;98909.78;;;26.73;41.96
20156;BME280;10238;49.556;10.956;2023-05-27T10:18:42;98901.06;;;27.04;40.00
20156;BME280;10238;49.556;10.956;2023-05-27T10:21:30;98906.50;;;26.88;39.84
20156;BME280;10238;49.556;10.956;2023-05-27T10:24:18;98899.06;;;27.00;38.97
20156;BME280;10238;49.556;10.956;2023-05-27T10:27:08;98894.84;;;27.37;39.67
20156;BME280;10238;49.556;10.956;2023-05-27T10:29:58;98892.50;;;27.46;39.39
20156;BME280;10238;49.556;10.956;2023-05-27T10:32:49;98884.16;;;27.36;39.62
20156;BME280;10238;49.556;10.956;2023-05-27T10:35:40;98886.88;;;27.36;38.02
20156;BME280;10238;49.556;10.956;2023-05-27T10:38:28;98884.72;;;27.38;40.10
20156;BME280;10238;49.556;10.956;2023-05-27T10:41:16;98876.75;;;27.69;40.17
20156;BME280;10238;49.556;10.956;2023-05-27T10:44:05;98870.50;;;27.90;40.31
20156;BME280;10238;49.556;10.956;2023-05-27T10:46:59;98867.84;;;27.79;40.21
20156;BME280;10238;49.556;10.956;2023-05-27T10:49:48;98865.31;;;26.89;37.45
20156;BME280;10238;49.556;10.956;2023-05-27T10:52:38;98882.94;;;25.91;39.39
20156;BME280;10238;49.556;10.956;2023-05-27T10:55:26;98878.38;;;26.71;40.16
20156;BME280;10238;49.556;10.956;2023-05-27T10:58:16;98868.81;;;27.35;39.85
20156;BME280;10238;49.556;10.956;2023-05-27T11:01:09;98861.31;;;27.42;38.67
20156;BME280;10238;49.556;10.956;2023-05-27T11:03:58;98863.00;;;27.48;37.63
20156;BME280;10238;49.556;10.956;2023-05-27T11:06:57;98857.47;;;27.97;37.26
20156;BME280;10238;49.556;10.956;2023-05-27T11:09:52;98861.28;;;28.18;38.28
20156;BME280;10238;49.556;10.956;2023-05-27T11:12:44;98861.16;;;28.29;37.08
20156;BME280;10238;49.556;10.956;2023-05-27T11:15:32;98854.91;;;28.34;37.26
20156;BME280;10238;49.556;10.956;2023-05-27T11:18:21;98851.91;;;28.35;36.24
20156;BME280;10238;49.556;10.956;2023-05-27T11:21:11;98851.38;;;28.12;38.19
20156;BME280;10238;49.556;10.956;2023-05-27T11:23:59;98851.47;;;28.43;37.82
20156;BME280;10238;49.556;10.956;2023-05-27T11:26:48;98850.94;;;28.68;37.37
20156;BME280;10238;49.556;10.956;2023-05-27T11:29:37;98835.69;;;28.77;34.22
20156;BME280;10238;49.556;10.956;2023-05-27T11:32:25;98834.81;;;29.03;36.99
20156;BME280;10238;49.556;10.956;2023-05-27T11:35:16;98829.47;;;29.13;34.82
20156;BME280;10238;49.556;10.956;2023-05-27T11:38:04;98833.63;;;29.15;34.27
20156;BME280;10238;49.556;10.956;2023-05-27T11:41:17;98824.16;;;29.33;34.66
20156;BME280;10238;49.556;10.956;2023-05-27T11:44:06;98817.19;;;29.15;35.02
20156;BME280;10238;49.556;10.956;2023-05-27T11:46:59;98811.97;;;29.19;35.10
20156;BME280;10238;49.556;10.956;2023-05-27T11:49:48;98816.88;;;29.12;35.29
20156;BME280;10238;49.556;10.956;2023-05-27T11:52:50;98804.63;;;29.24;36.77
20156;BME280;10238;49.556;10.956;2023-05-27T11:55:39;98806.84;;;29.69;36.06
20156;BME280;10238;49.556;10.956;2023-05-27T11:58:26;98800.31;;;29.80;35.76
20156;BME280;10238;49.556;10.956;2023-05-27T12:01:14;98795.91;;;29.74;35.00
20156;BME280;10238;49.556;10.956;2023-05-27T12:04:01;98791.66;;;29.57;32.29
20156;BME280;10238;49.556;10.956;2023-05-27T12:06:50;98782.06;;;29.54;33.71
20156;BME280;10238;49.556;10.956;2023-05-27T12:09:39;98775.09;;;29.00;35.46
20156;BME280;10238;49.556;10.956;2023-05-27T12:12:26;98774.22;;;29.26;36.61
20156;BME280;10238;49.556;10.956;2023-05-27T12:15:20;98762.00;;;29.39;34.95
20156;BME280;10238;49.556;10.956;2023-05-27T12:18:11;98765.03;;;29.47;35.54
20156;BME280;10238;49.556;10.956;2023-05-27T12:20:59;98755.78;;;29.58;36.89
20156;BME280;10238;49.556;10.956;2023-05-27T12:23:46;98756.88;;;29.57;33.66
20156;BME280;10238;49.556;10.956;2023-05-27T12:26:35;98752.72;;;29.50;34.58
20156;BME280;10238;49.556;10.956;2023-05-27T12:29:26;98754.19;;;29.67;36.10
20156;BME280;10238;49.556;10.956;2023-05-27T12:32:16;98743.66;;;30.11;35.46
20156;BME280;10238;49.556;10.956;2023-05-27T12:35:05;98746.41;;;30.16;33.14
20156;BME280;10238;49.556;10.956;2023-05-27T12:37:53;98744.03;;;30.29;34.10
20156;BME280;10238;49.556;10.956;2023-05-27T12:40:44;98751.69;;;30.22;33.44
20156;BME280;10238;49.556;10.956;2023-05-27T12:43:33;98739.63;;;30.33;33.65
20156;BME280;10238;49.556;10.956;2023-05-27T12:46:21;98752.25;;;30.19;34.90
20156;BME280;10238;49.556;10.956;2023-05-27T12:49:08;98735.44;;;30.16;34.52
20156;BME280;10238;49.556;10.956;2023-05-27T12:51:56;98730.41;;;29.73;31.93
20156;BME280;10238;49.556;10.956;2023-05-27T12:54:44;98729.44;;;29.47;33.21
20156;BME280;10238;49.556;10.956;2023-05-27T12:57:31;98724.63;;;29.69;32.56
20156;BME280;10238;49.556;10.956;2023-05-27T13:00:27;98727.19;;;30.01;31.58
20156;BME280;10238;49.556;10.956;2023-05-27T13:03:15;98711.03;;;30.14;33.33
20156;BME280;10238;49.556;10.956;2023-05-27T13:06:05;98707.53;;;30.29;32.64
20156;BME280;10238;49.556;10.956;2023-05-27T13:08:52;98702.06;;;30.59;31.45
20156;BME280;10238;49.556;10.956;2023-05-27T13:11:40;98700.13;;;30.84;32.29
20156;BME280;10238;49.556;10.956;2023-05-27T13:14:28;98698.16;;;31.20;31.47
20156;BME280;10238;49.556;10.956;2023-05-27T13:17:17;98688.63;;;30.77;30.90
20156;BME280;10238;49.556;10.956;2023-05-27T13:20:06;98694.66;;;30.54;31.32
20156;BME280;10238;49.556;10.956;2023-05-27T13:22:56;98683.63;;;30.94;32.19
20156;BME280;10238;49.556;10.956;2023-05-27T13:25:46;98687.41;;;31.39;32.80
20156;BME280;10238;49.556;10.956;2023-05-27T13:28:34;98683.75;;;31.53;32.16
20156;BME280;10238;49.556;10.956;2023-05-27T13:31:22;98685.28;;;31.05;32.24
20156;BME280;10238;49.556;10.956;2023-05-27T13:34:12;98678.59;;;31.27;30.38
20156;BME280;10238;49.556;10.956;2023-05-27T13:36:59;98673.09;;;31.42;31.29
20156;BME280;10238;49.556;10.956;2023-05-27T13:39:48;98673.88;;;31.52;30.85
20156;BME280;10238;49.556;10.956;2023-05-27T13:42:37;98664.34;;;31.30;30.05
20156;BME280;10238;49.556;10.956;2023-05-27T13:45:24;98666.25;;;31.24;31.97
20156;BME280;10238;49.556;10.956;2023-05-27T13:48:13;98664.81;;;31.52;31.56
20156;BME280;10238;49.556;10.956;2023-05-27T13:51:02;98654.06;;;32.04;29.85
20156;BME280;10238;49.556;10.956;2023-05-27T13:53:50;98648.00;;;32.07;31.39
20156;BME280;10238;49.556;10.956;2023-05-27T13:56:38;98645.28;;;31.58;30.57
20156;BME280;10238;49.556;10.956;2023-05-27T13:59:26;98649.13;;;31.52;30.80
20156;BME280;10238;49.556;10.956;2023-05-27T14:02:13;98645.41;;;31.18;32.08
20156;BME280;10238;49.556;10.956;2023-05-27T14:05:01;98640.91;;;31.52;30.43
20156;BME280;10238;49.556;10.956;2023-05-27T14:07:50;98643.38;;;31.54;30.78
20156;BME280;10238;49.556;10.956;2023-05-27T14:10:38;98637.88;;;31.49;31.16
20156;BME280;10238;49.556;10.956;2023-05-27T14:13:26;98636.78;;;31.50;30.58
20156;BME280;10238;49.556;10.956;2023-05-27T14:16:14;98621.59;;;31.57;30.32
20156;BME280;10238;49.556;10.956;2023-05-27T14:19:02;98621.22;;;31.84;30.29
20156;BME280;10238;49.556;10.956;2023-05-27T14:21:50;98614.31;;;31.86;30.79
20156;BME280;10238;49.556;10.956;2023-05-27T14:24:39;98613.91;;;31.64;30.59
20156;BME280;10238;49.556;10.956;2023-05-27T14:27:27;98611.00;;;31.41;30.70
20156;BME280;10238;49.556;10.956;2023-05-27T14:30:15;98601.56;;;31.57;31.63
20156;BME280;10238;49.556;10.956;2023-05-27T14:33:04;98602.28;;;31.18;30.74
20156;BME280;10238;49.556;10.956;2023-05-27T14:35:53;98593.66;;;31.40;31.49
20156;BME280;10238;49.556;10.956;2023-05-27T14:38:41;98596.00;;;31.67;31.12
20156;BME280;10238;49.556;10.956;2023-05-27T14:41:31;98588.31;;;31.64;31.16